sensor_id;sensor_type;location;lat;lon;timestamp;pressure;altitude;pressure_sealevel;temperature;humidity
32067;BME280;18573;47.890;35.066;2023-07-16T00:00:04;100528.43;;;25.01;46.73
32067;BME280;18573;47.890;35.066;2023-07-16T00:02:36;100532.77;;;25.16;46.43
32067;BME280;18573;47.890;35.066;2023-07-16T00:05:06;100532.77;;;25.16;46.43
32067;BME280;18573;47.890;35.066;2023-07-16T00:07:36;100529.19;;;25.05;46.72
32067;BME280;18573;47.890;35.066;2023-07-16T00:10:06;100531.12;;;25.04;46.72
32067;BME280;18573;47.890;35.066;2023-07-16T00:12:35;100530.80;;;25.06;46.71
32067;BME280;18573;47.890;35.066;2023-07-16T00:15:06;100536.08;;;25.02;46.75
32067;BME280;18573;47.890;35.066;2023-07-16T00:17:35;100535.52;;;25.03;46.25
32067;BME280;18573;47.890;35.066;2023-07-16T00:20:06;100530.84;;;24.92;46.73
32067;BME280;18573;47.890;35.066;2023-07-16T00:22:35;100524.48;;;24.94;46.51
32067;BME280;18573;47.890;35.066;2023-07-16T00:25:07;100524.48;;;24.94;46.51
32067;BME280;18573;47.890;35.066;2023-07-16T00:27:36;100529.99;;;25.05;46.58
32067;BME280;18573;47.890;35.066;2023-07-16T00:30:07;100531.89;;;24.93;46.97
32067;BME280;18573;47.890;35.066;2023-07-16T00:32:36;100531.89;;;24.93;46.97
32067;BME280;18573;47.890;35.066;2023-07-16T00:35:06;100525.69;;;24.76;47.19
32067;BME280;18573;47.890;35.066;2023-07-16T00:37:35;100525.69;;;24.76;47.19
32067;BME280;18573;47.890;35.066;2023-07-16T00:40:05;100528.55;;;24.58;47.53
32067;BME280;18573;47.890;35.066;2023-07-16T00:42:34;100528.55;;;24.58;47.53
32067;BME280;18573;47.890;35.066;2023-07-16T00:45:08;100529.19;;;24.55;47.37
32067;BME280;18573;47.890;35.066;2023-07-16T00:47:36;100518.53;;;24.53;47.35
32067;BME280;18573;47.890;35.066;2023-07-16T00:50:08;100518.53;;;24.53;47.35
32067;BME280;18573;47.890;35.066;2023-07-16T00:52:38;100521.52;;;24.54;47.51
32067;BME280;18573;47.890;35.066;2023-07-16T00:55:08;100531.72;;;24.37;47.78
32067;BME280;18573;47.890;35.066;2023-07-16T00:57:39;100531.72;;;24.37;47.78
32067;BME280;18573;47.890;35.066;2023-07-16T01:00:08;100528.65;;;24.25;48.66
32067;BME280;18573;47.890;35.066;2023-07-16T01:02:38;100534.01;;;24.30;48.02
32067;BME280;18573;47.890;35.066;2023-07-16T01:05:08;100534.01;;;24.30;48.02
32067;BME280;18573;47.890;35.066;2023-07-16T01:07:37;100521.67;;;24.19;48.27
32067;BME280;18573;47.890;35.066;2023-07-16T01:10:09;100521.67;;;24.19;48.27
32067;BME280;18573;47.890;35.066;2023-07-16T01:12:39;100530.08;;;24.36;48.17
32067;BME280;18573;47.890;35.066;2023-07-16T01:15:08;100522.27;;;24.30;48.12
32067;BME280;18573;47.890;35.066;2023-07-16T01:17:37;100522.27;;;24.30;48.12
32067;BME280;18573;47.890;35.066;2023-07-16T01:20:08;100525.56;;;24.29;47.76
32067;BME280;18573;47.890;35.066;2023-07-16T01:22:53;100528.33;;;24.26;48.22
32067;BME280;18573;47.890;35.066;2023-07-16T01:30:29;100531.23;;;24.19;48.42
32067;BME280;18573;47.890;35.066;2023-07-16T01:32:59;100533.75;;;24.15;48.46
32067;BME280;18573;47.890;35.066;2023-07-16T01:35:30;100534.42;;;24.10;48.57
32067;BME280;18573;47.890;35.066;2023-07-16T01:38:00;100532.48;;;24.10;48.57
32067;BME280;18573;47.890;35.066;2023-07-16T01:40:30;100532.73;;;24.11;48.53
32067;BME280;18573;47.890;35.066;2023-07-16T01:43:00;100525.37;;;23.95;48.86
32067;BME280;18573;47.890;35.066;2023-07-16T01:45:30;100526.33;;;23.88;49.03
32067;BME280;18573;47.890;35.066;2023-07-16T01:48:23;100531.36;;;23.97;48.86
32067;BME280;18573;47.890;35.066;2023-07-16T01:50:48;100528.02;;;23.87;48.79
32067;BME280;18573;47.890;35.066;2023-07-16T01:53:17;100525.53;;;23.88;48.84
32067;BME280;18573;47.890;35.066;2023-07-16T01:55:46;100525.53;;;23.88;48.84
32067;BME280;18573;47.890;35.066;2023-07-16T01:58:15;100528.84;;;23.85;49.10
32067;BME280;18573;47.890;35.066;2023-07-16T02:00:45;100534.09;;;23.81;49.14
32067;BME280;18573;47.890;35.066;2023-07-16T02:03:16;100535.46;;;23.81;49.20
32067;BME280;18573;47.890;35.066;2023-07-16T02:05:45;100535.77;;;23.96;48.65
32067;BME280;18573;47.890;35.066;2023-07-16T02:08:15;100538.22;;;23.95;48.58
32067;BME280;18573;47.890;35.066;2023-07-16T02:10:50;100538.22;;;23.95;48.58
32067;BME280;18573;47.890;35.066;2023-07-16T02:13:16;100536.39;;;23.90;48.89
32067;BME280;18573;47.890;35.066;2023-07-16T02:15:45;100536.23;;;24.00;48.60
32067;BME280;18573;47.890;35.066;2023-07-16T02:18:14;100528.28;;;24.02;48.47
32067;BME280;18573;47.890;35.066;2023-07-16T02:20:44;100526.70;;;23.98;49.02
32067;BME280;18573;47.890;35.066;2023-07-16T02:23:13;100530.88;;;24.09;48.38
32067;BME280;18573;47.890;35.066;2023-07-16T02:25:43;100533.16;;;24.18;48.17
32067;BME280;18573;47.890;35.066;2023-07-16T02:28:12;100533.16;;;24.18;48.17
32067;BME280;18573;47.890;35.066;2023-07-16T02:30:41;100531.41;;;24.22;47.96
32067;BME280;18573;47.890;35.066;2023-07-16T02:33:10;100538.98;;;24.28;47.82
32067;BME280;18573;47.890;35.066;2023-07-16T02:35:40;100540.34;;;24.28;48.22
32067;BME280;18573;47.890;35.066;2023-07-16T02:38:09;100538.91;;;24.31;47.99
32067;BME280;18573;47.890;35.066;2023-07-16T02:40:46;100537.89;;;24.43;47.52
32067;BME280;18573;47.890;35.066;2023-07-16T02:43:17;100537.89;;;24.43;47.52
32067;BME280;18573;47.890;35.066;2023-07-16T02:45:46;100545.23;;;24.59;47.49
32067;BME280;18573;47.890;35.066;2023-07-16T02:48:15;100543.41;;;24.68;47.80
32067;BME280;18573;47.890;35.066;2023-07-16T02:50:44;100552.34;;;24.71;47.67
32067;BME280;18573;47.890;35.066;2023-07-16T02:53:13;100547.88;;;24.75;46.97
32067;BME280;18573;47.890;35.066;2023-07-16T02:55:44;100550.69;;;24.72;47.58
32067;BME280;18573;47.890;35.066;2023-07-16T02:58:13;100555.59;;;24.73;47.32
32067;BME280;18573;47.890;35.066;2023-07-16T03:00:42;100555.59;;;24.73;47.32
32067;BME280;18573;47.890;35.066;2023-07-16T03:03:11;100554.59;;;24.69;48.13
32067;BME280;18573;47.890;35.066;2023-07-16T03:05:41;100557.70;;;24.76;47.88
32067;BME280;18573;47.890;35.066;2023-07-16T03:08:10;100563.63;;;24.81;47.24
32067;BME280;18573;47.890;35.066;2023-07-16T03:10:39;100563.63;;;24.81;47.24
32067;BME280;18573;47.890;35.066;2023-07-16T03:13:08;100563.55;;;25.11;47.21
32067;BME280;18573;47.890;35.066;2023-07-16T03:15:37;100570.50;;;25.42;46.18
32067;BME280;18573;47.890;35.066;2023-07-16T03:18:06;100570.50;;;25.42;46.18
32067;BME280;18573;47.890;35.066;2023-07-16T03:20:36;100570.00;;;25.85;45.53
32067;BME280;18573;47.890;35.066;2023-07-16T03:23:05;100576.15;;;26.01;44.80
32067;BME280;18573;47.890;35.066;2023-07-16T03:25:34;100575.06;;;26.11;44.85
32067;BME280;18573;47.890;35.066;2023-07-16T03:28:04;100575.06;;;26.11;44.85
32067;BME280;18573;47.890;35.066;2023-07-16T03:30:33;100589.42;;;26.28;45.13
32067;BME280;18573;47.890;35.066;2023-07-16T03:33:02;100587.39;;;26.54;44.13
32067;BME280;18573;47.890;35.066;2023-07-16T03:35:32;100590.49;;;26.69;43.80
32067;BME280;18573;47.890;35.066;2023-07-16T03:38:01;100595.14;;;26.80;44.46
32067;BME280;18573;47.890;35.066;2023-07-16T03:40:30;100595.14;;;26.80;44.46
32067;BME280;18573;47.890;35.066;2023-07-16T03:42:59;100593.08;;;27.03;43.34
32067;BME280;18573;47.890;35.066;2023-07-16T03:45:28;100593.08;;;27.03;43.34
32067;BME280;18573;47.890;35.066;2023-07-16T03:47:58;100599.20;;;27.20;42.96
32067;BME280;18573;47.890;35.066;2023-07-16T03:50:27;100603.06;;;27.36;43.09
32067;BME280;18573;47.890;35.066;2023-07-16T03:52:56;100600.88;;;27.53;42.41
32067;BME280;18573;47.890;35.066;2023-07-16T03:55:25;100596.77;;;27.62;42.31
32067;BME280;18573;47.890;35.066;2023-07-16T03:57:55;100596.77;;;27.62;42.31
32067;BME280;18573;47.890;35.066;2023-07-16T04:00:24;100600.38;;;27.68;42.39
32067;BME280;18573;47.890;35.066;2023-07-16T04:02:53;100599.05;;;28.00;41.44
32067;BME280;18573;47.890;35.066;2023-07-16T04:05:22;100599.05;;;28.00;41.44
32067;BME280;18573;47.890;35.066;2023-07-16T04:07:51;100604.02;;;27.92;41.91
32067;BME280;18573;47.890;35.066;2023-07-16T04:10:21;100604.30;;;28.08;41.32
32067;BME280;18573;47.890;35.066;2023-07-16T04:12:50;100611.58;;;28.04;41.80
32067;BME280;18573;47.890;35.066;2023-07-16T04:15:19;100611.58;;;28.04;41.80
32067;BME280;18573;47.890;35.066;2023-07-16T04:17:48;100617.44;;;27.94;41.67
32067;BME280;18573;47.890;35.066;2023-07-16T04:20:18;100619.59;;;28.03;41.14
32067;BME280;18573;47.890;35.066;2023-07-16T04:22:47;100619.59;;;28.03;41.14
32067;BME280;18573;47.890;35.066;2023-07-16T04:25:17;100629.04;;;28.08;41.19
32067;BME280;18573;47.890;35.066;2023-07-16T04:27:46;100633.77;;;27.82;41.72
32067;BME280;18573;47.890;35.066;2023-07-16T04:30:15;100633.77;;;27.82;41.72
32067;BME280;18573;47.890;35.066;2023-07-16T04:32:45;100635.64;;;27.92;41.19
32067;BME280;18573;47.890;35.066;2023-07-16T04:35:14;100631.26;;;27.83;41.28
32067;BME280;18573;47.890;35.066;2023-07-16T04:37:43;100633.61;;;27.78;41.43
32067;BME280;18573;47.890;35.066;2023-07-16T04:40:13;100633.61;;;27.78;41.43
32067;BME280;18573;47.890;35.066;2023-07-16T04:42:42;100636.77;;;27.65;41.50
32067;BME280;18573;47.890;35.066;2023-07-16T04:45:11;100638.77;;;27.45;41.85
32067;BME280;18573;47.890;35.066;2023-07-16T04:47:41;100642.76;;;27.76;41.33
32067;BME280;18573;47.890;35.066;2023-07-16T04:50:10;100637.88;;;27.56;41.75
32067;BME280;18573;47.890;35.066;2023-07-16T04:52:39;100642.19;;;27.85;41.33
32067;BME280;18573;47.890;35.066;2023-07-16T04:55:08;100638.53;;;27.87;41.27
32067;BME280;18573;47.890;35.066;2023-07-16T04:57:39;100630.61;;;27.94;40.94
32067;BME280;18573;47.890;35.066;2023-07-16T05:00:08;100635.16;;;27.47;42.22
32067;BME280;18573;47.890;35.066;2023-07-16T05:02:38;100635.16;;;27.47;42.22
32067;BME280;18573;47.890;35.066;2023-07-16T05:05:07;100632.78;;;27.25;42.56
32067;BME280;18573;47.890;35.066;2023-07-16T05:07:37;100630.14;;;27.03;43.01
32067;BME280;18573;47.890;35.066;2023-07-16T05:10:07;100639.05;;;27.09;42.37
32067;BME280;18573;47.890;35.066;2023-07-16T05:12:36;100639.05;;;27.09;42.37
32067;BME280;18573;47.890;35.066;2023-07-16T05:15:06;100633.51;;;27.37;42.24
32067;BME280;18573;47.890;35.066;2023-07-16T05:17:35;100633.05;;;27.53;41.83
32067;BME280;18573;47.890;35.066;2023-07-16T05:20:05;100633.05;;;27.53;41.83
32067;BME280;18573;47.890;35.066;2023-07-16T05:22:35;100637.16;;;27.53;41.85
32067;BME280;18573;47.890;35.066;2023-07-16T05:25:05;100638.69;;;27.91;41.15
32067;BME280;18573;47.890;35.066;2023-07-16T05:27:34;100638.02;;;28.11;40.71
32067;BME280;18573;47.890;35.066;2023-07-16T05:30:04;100639.58;;;27.63;41.10
32067;BME280;18573;47.890;35.066;2023-07-16T05:32:33;100639.58;;;27.63;41.10
32067;BME280;18573;47.890;35.066;2023-07-16T05:35:03;100641.95;;;27.75;40.61
32067;BME280;18573;47.890;35.066;2023-07-16T05:37:32;100641.95;;;27.75;40.61
32067;BME280;18573;47.890;35.066;2023-07-16T05:40:02;100642.02;;;27.47;41.33
32067;BME280;18573;47.890;35.066;2023-07-16T05:42:32;100648.47;;;27.34;41.45
32067;BME280;18573;47.890;35.066;2023-07-16T05:45:01;100648.47;;;27.34;41.45
32067;BME280;18573;47.890;35.066;2023-07-16T05:47:30;100642.27;;;27.57;41.22
32067;BME280;18573;47.890;35.066;2023-07-16T05:50:00;100642.34;;;27.89;40.56
32067;BME280;18573;47.890;35.066;2023-07-16T05:52:29;100647.30;;;28.13;40.12
32067;BME280;18573;47.890;35.066;2023-07-16T05:54:59;100648.41;;;27.97;40.33
32067;BME280;18573;47.890;35.066;2023-07-16T05:57:28;100649.50;;;28.05;39.63
32067;BME280;18573;47.890;35.066;2023-07-16T05:59:58;100647.50;;;28.31;39.78
32067;BME280;18573;47.890;35.066;2023-07-16T06:02:27;100647.50;;;28.31;39.78
32067;BME280;18573;47.890;35.066;2023-07-16T06:04:56;100649.28;;;28.27;39.44
32067;BME280;18573;47.890;35.066;2023-07-16T06:07:25;100651.27;;;28.50;39.05
32067;BME280;18573;47.890;35.066;2023-07-16T06:09:54;100651.19;;;28.53;39.26
32067;BME280;18573;47.890;35.066;2023-07-16T06:12:23;100651.19;;;28.53;39.26
32067;BME280;18573;47.890;35.066;2023-07-16T06:14:52;100656.08;;;28.62;38.70
32067;BME280;18573;47.890;35.066;2023-07-16T06:17:22;100658.32;;;28.45;38.84
32067;BME280;18573;47.890;35.066;2023-07-16T06:19:51;100651.75;;;28.52;38.62
32067;BME280;18573;47.890;35.066;2023-07-16T06:22:20;100657.53;;;28.59;38.91
32067;BME280;18573;47.890;35.066;2023-07-16T06:24:49;100657.53;;;28.59;38.91
32067;BME280;18573;47.890;35.066;2023-07-16T06:27:19;100658.84;;;28.38;38.06
32067;BME280;18573;47.890;35.066;2023-07-16T06:29:48;100658.84;;;28.38;38.06
32067;BME280;18573;47.890;35.066;2023-07-16T06:32:17;100652.20;;;28.31;38.17
32067;BME280;18573;47.890;35.066;2023-07-16T06:34:46;100655.44;;;28.33;38.01
32067;BME280;18573;47.890;35.066;2023-07-16T06:37:15;100651.31;;;28.33;38.04
32067;BME280;18573;47.890;35.066;2023-07-16T06:39:45;100656.53;;;28.49;37.69
32067;BME280;18573;47.890;35.066;2023-07-16T06:42:14;100655.57;;;28.45;37.77
32067;BME280;18573;47.890;35.066;2023-07-16T06:44:44;100654.59;;;28.49;37.46
32067;BME280;18573;47.890;35.066;2023-07-16T06:47:13;100654.59;;;28.49;37.46
32067;BME280;18573;47.890;35.066;2023-07-16T06:49:44;100659.00;;;28.33;37.52
32067;BME280;18573;47.890;35.066;2023-07-16T06:52:22;100654.80;;;28.97;36.47
32067;BME280;18573;47.890;35.066;2023-07-16T06:54:55;100643.17;;;28.68;37.33
32067;BME280;18573;47.890;35.066;2023-07-16T06:57:25;100643.17;;;28.68;37.33
32067;BME280;18573;47.890;35.066;2023-07-16T06:59:54;100651.63;;;28.40;37.39
32067;BME280;18573;47.890;35.066;2023-07-16T07:02:24;100651.63;;;28.40;37.39
32067;BME280;18573;47.890;35.066;2023-07-16T07:04:54;100649.42;;;28.48;36.81
32067;BME280;18573;47.890;35.066;2023-07-16T07:07:23;100647.45;;;28.25;37.50
32067;BME280;18573;47.890;35.066;2023-07-16T07:09:52;100648.11;;;28.13;37.27
32067;BME280;18573;47.890;35.066;2023-07-16T07:12:22;100644.22;;;28.14;37.03
32067;BME280;18573;47.890;35.066;2023-07-16T07:14:52;100647.03;;;28.29;36.75
32067;BME280;18573;47.890;35.066;2023-07-16T07:17:23;100647.03;;;28.29;36.75
32067;BME280;18573;47.890;35.066;2023-07-16T07:19:52;100652.22;;;28.54;36.35
32067;BME280;18573;47.890;35.066;2023-07-16T07:22:21;100642.93;;;28.20;36.31
32067;BME280;18573;47.890;35.066;2023-07-16T07:24:51;100653.13;;;28.20;35.83
32067;BME280;18573;47.890;35.066;2023-07-16T07:27:22;100656.00;;;27.83;36.26
32067;BME280;18573;47.890;35.066;2023-07-16T07:29:52;100651.63;;;27.90;36.31
32067;BME280;18573;47.890;35.066;2023-07-16T07:32:23;100650.10;;;27.61;36.87
32067;BME280;18573;47.890;35.066;2023-07-16T07:34:52;100656.32;;;27.90;35.98
32067;BME280;18573;47.890;35.066;2023-07-16T07:37:21;100654.50;;;28.20;35.24
32067;BME280;18573;47.890;35.066;2023-07-16T07:39:53;100655.67;;;28.42;34.71
32067;BME280;18573;47.890;35.066;2023-07-16T07:42:22;100657.72;;;28.54;34.43
32067;BME280;18573;47.890;35.066;2023-07-16T07:44:54;100647.81;;;28.47;34.73
32067;BME280;18573;47.890;35.066;2023-07-16T07:47:24;100653.55;;;28.48;34.92
32067;BME280;18573;47.890;35.066;2023-07-16T07:49:53;100660.19;;;28.47;34.99
32067;BME280;18573;47.890;35.066;2023-07-16T07:52:23;100663.09;;;28.50;34.86
32067;BME280;18573;47.890;35.066;2023-07-16T07:54:52;100657.23;;;28.37;34.93
32067;BME280;18573;47.890;35.066;2023-07-16T07:57:21;100662.00;;;28.25;34.82
32067;BME280;18573;47.890;35.066;2023-07-16T07:59:52;100649.63;;;27.76;34.31
32067;BME280;18573;47.890;35.066;2023-07-16T08:02:23;100651.73;;;27.88;34.19
32067;BME280;18573;47.890;35.066;2023-07-16T08:04:54;100652.73;;;28.15;33.59
32067;BME280;18573;47.890;35.066;2023-07-16T08:07:23;100652.73;;;28.15;33.59
32067;BME280;18573;47.890;35.066;2023-07-16T08:09:53;100658.52;;;28.22;33.39
32067;BME280;18573;47.890;35.066;2023-07-16T08:12:22;100647.48;;;27.64;34.69
32067;BME280;18573;47.890;35.066;2023-07-16T08:14:51;100649.86;;;27.86;34.73
32067;BME280;18573;47.890;35.066;2023-07-16T08:17:21;100654.28;;;28.10;34.13
32067;BME280;18573;47.890;35.066;2023-07-16T08:19:51;100654.28;;;28.10;34.13
32067;BME280;18573;47.890;35.066;2023-07-16T08:22:21;100641.30;;;28.28;34.32
32067;BME280;18573;47.890;35.066;2023-07-16T08:24:52;100641.30;;;28.28;34.32
32067;BME280;18573;47.890;35.066;2023-07-16T08:27:23;100653.19;;;28.35;33.64
32067;BME280;18573;47.890;35.066;2023-07-16T08:29:53;100641.14;;;28.57;33.80
32067;BME280;18573;47.890;35.066;2023-07-16T08:32:23;100629.71;;;28.75;33.69
32067;BME280;18573;47.890;35.066;2023-07-16T08:34:52;100640.14;;;28.61;33.72
32067;BME280;18573;47.890;35.066;2023-07-16T08:37:21;100640.14;;;28.61;33.72
32067;BME280;18573;47.890;35.066;2023-07-16T08:39:53;100637.65;;;28.92;32.77
32067;BME280;18573;47.890;35.066;2023-07-16T08:42:23;100637.65;;;28.92;32.77
32067;BME280;18573;47.890;35.066;2023-07-16T08:44:53;100633.45;;;29.09;32.56
32067;BME280;18573;47.890;35.066;2023-07-16T08:47:23;100639.84;;;29.07;32.97
32067;BME280;18573;47.890;35.066;2023-07-16T08:49:56;100631.04;;;28.84;33.15
32067;BME280;18573;47.890;35.066;2023-07-16T08:52:27;100636.02;;;28.61;33.21
32067;BME280;18573;47.890;35.066;2023-07-16T08:54:56;100633.77;;;28.22;33.48
32067;BME280;18573;47.890;35.066;2023-07-16T08:57:26;100626.50;;;28.18;34.06
32067;BME280;18573;47.890;35.066;2023-07-16T08:59:56;100626.50;;;28.18;34.06
32067;BME280;18573;47.890;35.066;2023-07-16T09:02:26;100633.87;;;28.20;33.81
32067;BME280;18573;47.890;35.066;2023-07-16T09:04:56;100630.22;;;28.22;33.26
32067;BME280;18573;47.890;35.066;2023-07-16T09:07:25;100632.48;;;27.70;34.58
32067;BME280;18573;47.890;35.066;2023-07-16T09:09:58;100632.48;;;27.70;34.58
32067;BME280;18573;47.890;35.066;2023-07-16T09:12:28;100630.60;;;27.68;34.32
32067;BME280;18573;47.890;35.066;2023-07-16T09:14:57;100635.91;;;28.08;33.26
32067;BME280;18573;47.890;35.066;2023-07-16T09:17:28;100634.97;;;28.27;32.71
32067;BME280;18573;47.890;35.066;2023-07-16T09:20:01;100631.16;;;28.43;32.62
32067;BME280;18573;47.890;35.066;2023-07-16T09:22:30;100637.58;;;28.56;32.92
32067;BME280;18573;47.890;35.066;2023-07-16T09:25:01;100635.75;;;28.69;32.85
32067;BME280;18573;47.890;35.066;2023-07-16T09:27:31;100629.44;;;28.45;33.01
32067;BME280;18573;47.890;35.066;2023-07-16T09:30:00;100640.41;;;28.54;33.18
32067;BME280;18573;47.890;35.066;2023-07-16T09:32:38;100640.41;;;28.54;33.18
32067;BME280;18573;47.890;35.066;2023-07-16T09:35:12;100623.91;;;28.54;33.37
32067;BME280;18573;47.890;35.066;2023-07-16T09:37:42;100619.91;;;28.10;33.47
32067;BME280;18573;47.890;35.066;2023-07-16T09:40:12;100622.98;;;28.00;34.09
32067;BME280;18573;47.890;35.066;2023-07-16T09:42:43;100633.20;;;28.23;34.10
32067;BME280;18573;47.890;35.066;2023-07-16T09:45:19;100633.20;;;28.23;34.10
32067;BME280;18573;47.890;35.066;2023-07-16T09:47:48;100623.47;;;28.43;34.38
32067;BME280;18573;47.890;35.066;2023-07-16T09:50:17;100625.64;;;28.11;34.94
32067;BME280;18573;47.890;35.066;2023-07-16T09:52:47;100627.08;;;28.17;34.70
32067;BME280;18573;47.890;35.066;2023-07-16T09:55:17;100624.34;;;28.09;34.61
32067;BME280;18573;47.890;35.066;2023-07-16T09:57:47;100622.92;;;28.03;34.63
32067;BME280;18573;47.890;35.066;2023-07-16T10:00:17;100618.30;;;28.00;34.31
32067;BME280;18573;47.890;35.066;2023-07-16T10:02:49;100618.30;;;28.00;34.31
32067;BME280;18573;47.890;35.066;2023-07-16T10:05:19;100629.07;;;27.91;35.30
32067;BME280;18573;47.890;35.066;2023-07-16T10:07:55;100629.07;;;27.91;35.30
32067;BME280;18573;47.890;35.066;2023-07-16T10:10:43;100624.64;;;27.92;35.04
32067;BME280;18573;47.890;35.066;2023-07-16T10:13:10;100617.85;;;27.81;34.53
32067;BME280;18573;47.890;35.066;2023-07-16T10:15:39;100621.24;;;27.78;34.40
32067;BME280;18573;47.890;35.066;2023-07-16T10:18:10;100624.39;;;27.83;34.59
32067;BME280;18573;47.890;35.066;2023-07-16T10:20:40;100624.39;;;27.83;34.59
32067;BME280;18573;47.890;35.066;2023-07-16T10:23:12;100621.41;;;27.82;34.26
32067;BME280;18573;47.890;35.066;2023-07-16T10:25:58;100617.98;;;28.02;33.99
32067;BME280;18573;47.890;35.066;2023-07-16T10:28:28;100610.88;;;28.01;34.34
32067;BME280;18573;47.890;35.066;2023-07-16T10:30:57;100610.88;;;28.01;34.34
32067;BME280;18573;47.890;35.066;2023-07-16T10:33:26;100616.92;;;28.00;33.86
32067;BME280;18573;47.890;35.066;2023-07-16T10:35:57;100618.09;;;27.73;33.82
32067;BME280;18573;47.890;35.066;2023-07-16T10:38:30;100616.47;;;27.55;33.57
32067;BME280;18573;47.890;35.066;2023-07-16T10:41:01;100616.06;;;27.68;33.48
32067;BME280;18573;47.890;35.066;2023-07-16T10:43:31;100616.19;;;27.74;33.43
32067;BME280;18573;47.890;35.066;2023-07-16T10:46:01;100609.93;;;27.88;33.28
32067;BME280;18573;47.890;35.066;2023-07-16T10:48:30;100615.88;;;27.99;32.61
32067;BME280;18573;47.890;35.066;2023-07-16T10:51:00;100615.88;;;27.99;32.61
32067;BME280;18573;47.890;35.066;2023-07-16T10:53:29;100605.85;;;28.03;31.96
32067;BME280;18573;47.890;35.066;2023-07-16T10:56:00;100605.85;;;28.03;31.96
32067;BME280;18573;47.890;35.066;2023-07-16T10:58:30;100615.01;;;28.01;32.88
32067;BME280;18573;47.890;35.066;2023-07-16T11:00:59;100608.66;;;28.09;32.47
32067;BME280;18573;47.890;35.066;2023-07-16T11:03:28;100605.77;;;28.06;32.73
32067;BME280;18573;47.890;35.066;2023-07-16T11:05:57;100603.70;;;27.85;32.45
32067;BME280;18573;47.890;35.066;2023-07-16T11:08:26;100604.44;;;27.54;32.61
32067;BME280;18573;47.890;35.066;2023-07-16T11:10:57;100606.54;;;27.65;32.87
32067;BME280;18573;47.890;35.066;2023-07-16T11:13:30;100605.89;;;27.77;33.09
32067;BME280;18573;47.890;35.066;2023-07-16T11:16:09;100609.74;;;28.02;33.08
32067;BME280;18573;47.890;35.066;2023-07-16T11:18:39;100616.22;;;27.97;33.08
32067;BME280;18573;47.890;35.066;2023-07-16T11:21:11;100619.23;;;27.81;32.67
32067;BME280;18573;47.890;35.066;2023-07-16T11:23:41;100619.23;;;27.81;32.67
32067;BME280;18573;47.890;35.066;2023-07-16T11:26:10;100604.28;;;27.76;32.68
32067;BME280;18573;47.890;35.066;2023-07-16T11:28:41;100615.59;;;27.66;32.62
32067;BME280;18573;47.890;35.066;2023-07-16T11:31:17;100608.09;;;27.43;32.08
32067;BME280;18573;47.890;35.066;2023-07-16T11:33:48;100610.09;;;27.57;31.95
32067;BME280;18573;47.890;35.066;2023-07-16T11:36:17;100613.81;;;27.61;32.07
32067;BME280;18573;47.890;35.066;2023-07-16T11:38:48;100603.97;;;27.51;31.90
32067;BME280;18573;47.890;35.066;2023-07-16T11:41:20;100609.83;;;27.65;31.53
32067;BME280;18573;47.890;35.066;2023-07-16T11:43:50;100609.83;;;27.65;31.53
32067;BME280;18573;47.890;35.066;2023-07-16T11:46:19;100604.43;;;27.71;31.77
32067;BME280;18573;47.890;35.066;2023-07-16T11:48:48;100604.43;;;27.71;31.77
32067;BME280;18573;47.890;35.066;2023-07-16T11:51:19;100611.20;;;27.65;32.26
32067;BME280;18573;47.890;35.066;2023-07-16T11:53:48;100606.45;;;27.50;32.88
32067;BME280;18573;47.890;35.066;2023-07-16T11:56:17;100617.20;;;27.49;33.21
32067;BME280;18573;47.890;35.066;2023-07-16T11:58:46;100608.00;;;27.80;32.52
32067;BME280;18573;47.890;35.066;2023-07-16T12:01:15;100608.00;;;27.80;32.52
32067;BME280;18573;47.890;35.066;2023-07-16T12:03:45;100608.48;;;27.73;32.91
32067;BME280;18573;47.890;35.066;2023-07-16T12:06:16;100615.35;;;27.73;33.21
32067;BME280;18573;47.890;35.066;2023-07-16T12:08:47;100608.38;;;27.67;33.23
32067;BME280;18573;47.890;35.066;2023-07-16T12:11:16;100606.06;;;27.72;33.08
32067;BME280;18573;47.890;35.066;2023-07-16T12:13:46;100606.06;;;27.72;33.08
32067;BME280;18573;47.890;35.066;2023-07-16T12:16:16;100594.50;;;27.81;33.08
32067;BME280;18573;47.890;35.066;2023-07-16T12:18:45;100601.98;;;27.95;33.09
32067;BME280;18573;47.890;35.066;2023-07-16T12:21:17;100588.80;;;27.95;34.16
32067;BME280;18573;47.890;35.066;2023-07-16T12:23:48;100588.80;;;27.95;34.16
32067;BME280;18573;47.890;35.066;2023-07-16T12:26:17;100585.83;;;27.94;33.91
32067;BME280;18573;47.890;35.066;2023-07-16T12:28:46;100585.83;;;27.94;33.91
32067;BME280;18573;47.890;35.066;2023-07-16T12:31:15;100588.89;;;28.01;33.51
32067;BME280;18573;47.890;35.066;2023-07-16T12:33:49;100589.95;;;27.94;33.08
32067;BME280;18573;47.890;35.066;2023-07-16T12:36:20;100594.03;;;27.79;33.38
32067;BME280;18573;47.890;35.066;2023-07-16T12:38:49;100585.77;;;27.88;34.08
32067;BME280;18573;47.890;35.066;2023-07-16T12:41:18;100585.77;;;27.88;34.08
32067;BME280;18573;47.890;35.066;2023-07-16T12:43:47;100594.02;;;27.88;34.29
32067;BME280;18573;47.890;35.066;2023-07-16T12:46:16;100591.38;;;28.00;34.13
32067;BME280;18573;47.890;35.066;2023-07-16T12:48:46;100592.86;;;27.97;34.46
32067;BME280;18573;47.890;35.066;2023-07-16T12:51:15;100585.31;;;28.00;34.81
32067;BME280;18573;47.890;35.066;2023-07-16T12:53:45;100585.31;;;28.00;34.81
32067;BME280;18573;47.890;35.066;2023-07-16T12:56:15;100585.38;;;27.83;34.31
32067;BME280;18573;47.890;35.066;2023-07-16T12:58:47;100585.38;;;27.83;34.31